Time;durP1;ratioP1;P1;durP2;ratioP2;P2;SDS_P1;SDS_P2;PMS_P1;PMS_P2;Temp;Humidity;BMP_temperature;BMP_pressure;BME280_temperature;BME280_humidity;BME280_pressure;Samples;Min_cycle;Max_cycle;Signal;HPM_P1;HPM_P2
2022/03/12 00:00:30;;;;;;;17.00;7.57;;;;;;;0.23;61.43;101081.28;5098004;28;20141;-76
2022/03/12 00:02:57;;;;;;;20.87;7.77;;;;;;;-0.20;61.58;101014.47;5099735;28;20039;-76
2022/03/12 00:05:25;;;;;;;19.13;7.47;;;;;;;0.07;61.17;101068.97;5103135;28;20027;-76
2022/03/12 00:07:51;;;;;;;21.97;8.43;;;;;;;-0.10;61.72;101080.03;5102915;28;20042;-76
2022/03/12 00:10:19;;;;;;;23.20;7.77;;;;;;;-0.05;61.90;101086.75;5103269;28;20298;-76
2022/03/12 00:12:44;;;;;;;15.83;7.30;;;;;;;-0.06;62.60;101087.66;5102362;28;20062;-76
2022/03/12 00:15:12;;;;;;;13.93;6.53;;;;;;;-0.24;63.33;101082.34;5101239;28;20036;-76
2022/03/12 00:17:45;;;;;;;14.67;7.03;;;;;;;-0.41;63.83;101089.06;5098943;28;20050;-76
2022/03/12 00:20:16;;;;;;;14.38;6.10;;;;;;;-0.44;65.37;101090.94;5097037;28;20040;-76
2022/03/12 00:22:44;;;;;;;14.93;6.63;;;;;;;-0.98;70.24;101068.69;5096177;28;20047;-77
2022/03/12 00:25:11;;;;;;;16.47;7.17;;;;;;;-1.10;74.43;101100.31;5098502;28;20051;-76
2022/03/12 00:27:41;;;;;;;15.60;8.03;;;;;;;-1.26;79.17;101113.00;5096068;28;20067;-76
2022/03/12 00:30:08;;;;;;;26.77;9.20;;;;;;;-1.87;85.55;101081.34;5096178;28;20032;-76
2022/03/12 00:32:37;;;;;;;21.67;10.03;;;;;;;-1.74;89.33;101110.34;5097608;28;20048;-76
2022/03/12 00:35:04;;;;;;;33.30;12.60;;;;;;;-1.97;92.96;101121.47;5095549;28;20032;-76
2022/03/12 00:37:30;;;;;;;24.87;10.37;;;;;;;-2.16;94.58;101103.00;5097408;28;20020;-76
2022/03/12 00:39:56;;;;;;;23.70;9.07;;;;;;;-2.43;96.08;101093.50;5095542;28;20282;-76
2022/03/12 00:42:21;;;;;;;21.80;11.10;;;;;;;-2.17;98.73;101098.72;5097082;28;20069;-75
2022/03/12 00:44:47;;;;;;;22.03;11.30;;;;;;;-2.43;98.78;101086.56;5095390;28;20073;-75
2022/03/12 00:47:12;;;;;;;16.47;8.60;;;;;;;-2.54;99.48;101095.56;5097081;28;20087;-75
2022/03/12 00:49:37;;;;;;;16.57;8.67;;;;;;;-2.53;99.73;101099.84;5095287;28;20230;-76
2022/03/12 00:52:03;;;;;;;15.90;8.17;;;;;;;-2.41;97.90;101120.22;5097245;28;20028;-76
2022/03/12 00:54:29;;;;;;;19.57;9.70;;;;;;;-2.42;98.09;101109.00;5095151;28;21354;-75
2022/03/12 00:56:54;;;;;;;25.23;9.23;;;;;;;-2.40;97.71;101107.22;5096843;28;20203;-75
2022/03/12 00:59:20;;;;;;;20.80;8.87;;;;;;;-2.50;96.61;101102.34;5097095;28;20044;-76
2022/03/12 01:01:45;;;;;;;27.20;10.20;;;;;;;-2.57;97.81;101096.50;5095648;28;20040;-75
2022/03/12 01:04:10;;;;;;;21.33;10.30;;;;;;;-2.55;98.22;101086.09;5097168;28;20095;-75
2022/03/12 01:06:37;;;;;;;23.90;9.43;;;;;;;-2.54;98.42;101090.38;5094825;28;20065;-75
2022/03/12 01:09:03;;;;;;;23.87;11.33;;;;;;;-2.47;97.50;101105.69;5097386;28;20306;-75
2022/03/12 01:11:29;;;;;;;27.83;11.13;;;;;;;-2.51;96.95;101104.09;5094787;28;20020;-75
2022/03/12 01:13:55;;;;;;;25.73;11.33;;;;;;;-2.63;97.96;101100.13;5097278;28;20341;-76
2022/03/12 01:16:22;;;;;;;26.37;11.77;;;;;;;-2.48;97.11;101092.78;5094024;28;20020;-75
2022/03/12 01:18:47;;;;;;;24.40;11.03;;;;;;;-2.83;97.13;101068.75;5094912;28;20031;-76
2022/03/12 01:21:17;;;;;;;22.47;10.47;;;;;;;-2.64;97.55;101110.53;5095087;28;20020;-76
2022/03/12 01:23:44;;;;;;;21.77;9.60;;;;;;;-2.73;97.58;101100.44;5094554;28;20269;-76
2022/03/12 01:26:11;;;;;;;20.83;8.73;;;;;;;-2.76;96.91;101108.31;5096686;28;20046;-75
2022/03/12 01:28:37;;;;;;;22.77;9.70;;;;;;;-2.73;97.38;101111.66;5094586;28;20032;-75
2022/03/12 01:31:03;;;;;;;22.80;8.77;;;;;;;-2.80;97.08;101109.28;5096611;28;20076;-75
2022/03/12 01:33:29;;;;;;;19.83;9.00;;;;;;;-2.90;97.30;101103.53;5094909;28;20035;-76
2022/03/12 01:35:56;;;;;;;18.53;8.40;;;;;;;-2.98;97.48;101093.38;5096644;28;20315;-76
2022/03/12 01:38:31;;;;;;;15.67;6.97;;;;;;;-2.96;97.53;101114.91;5096538;28;20027;-75
2022/03/12 01:40:58;;;;;;;18.27;9.37;;;;;;;-2.80;97.91;101098.94;5094650;28;20289;-76
2022/03/12 01:43:26;;;;;;;21.33;8.37;;;;;;;-2.98;97.71;101113.25;5094944;28;20081;-76
2022/03/12 01:45:51;;;;;;;18.47;8.63;;;;;;;-3.02;97.44;101098.69;5096149;28;20080;-76
2022/03/12 01:48:17;;;;;;;18.00;8.57;;;;;;;-2.84;96.28;101111.13;5094643;28;20036;-76
2022/03/12 01:50:42;;;;;;;19.07;9.00;;;;;;;-2.79;96.70;101111.84;5095660;28;20040;-76
2022/03/12 01:53:10;;;;;;;21.53;8.90;;;;;;;-2.86;96.27;101087.00;5092625;28;20020;-75
2022/03/12 01:55:39;;;;;;;20.40;8.43;;;;;;;-2.71;95.19;101107.28;5096089;28;20035;-75
2022/03/12 01:58:05;;;;;;;19.37;8.20;;;;;;;-2.51;94.33;101117.06;5094194;28;20043;-76
2022/03/12 02:00:43;;;;;;;16.07;7.50;;;;;;;-2.74;93.86;101115.16;5094897;28;20091;-76
2022/03/12 02:03:11;;;;;;;20.47;8.97;;;;;;;-2.39;93.37;101111.50;5095892;28;20307;-75
2022/03/12 02:05:37;;;;;;;18.07;8.20;;;;;;;-2.08;91.61;101107.94;5093977;28;20613;-76
2022/03/12 02:08:03;;;;;;;17.60;8.80;;;;;;;-2.03;90.43;101078.41;5093573;28;20051;-76
2022/03/12 02:10:29;;;;;;;17.33;8.60;;;;;;;-1.70;89.57;101093.75;5095514;28;20091;-76
2022/03/12 02:12:54;;;;;;;15.50;8.70;;;;;;;-1.73;89.24;101097.31;5094816;28;20062;-76
2022/03/12 02:15:22;;;;;;;17.90;8.87;;;;;;;-1.68;89.07;101103.19;5095605;28;20040;-76
2022/03/12 02:17:50;;;;;;;16.17;8.37;;;;;;;-1.62;87.87;101087.41;5094079;28;20043;-76
2022/03/12 02:20:17;;;;;;;14.30;7.37;;;;;;;-1.67;87.93;101091.06;5094657;28;20097;-76
2022/03/12 02:22:45;;;;;;;20.23;8.13;;;;;;;-1.56;87.12;101099.31;5093106;28;20032;-76
2022/03/12 02:25:12;;;;;;;14.03;7.53;;;;;;;-1.55;86.67;101103.63;5095452;28;20059;-76
2022/03/12 02:27:38;;;;;;;18.23;8.43;;;;;;;-1.35;85.69;101095.13;5092913;28;20040;-76
2022/03/12 02:30:08;;;;;;;19.27;9.07;;;;;;;-1.14;84.56;101104.78;5094788;28;20036;-76
2022/03/12 02:32:37;;;;;;;17.23;9.03;;;;;;;-0.95;83.74;101111.94;5095539;28;20099;-76
2022/03/12 02:35:06;;;;;;;16.57;7.97;;;;;;;-0.93;83.29;101110.97;5093773;28;20047;-76
2022/03/12 02:37:34;;;;;;;17.00;8.50;;;;;;;-0.58;81.53;101109.66;5095202;28;20034;-76
2022/03/12 02:40:05;;;;;;;20.57;9.43;;;;;;;-0.33;80.25;101109.56;5093475;28;20048;-76
2022/03/12 02:42:34;;;;;;;24.13;10.63;;;;;;;-0.35;80.34;101116.59;5093333;28;20027;-76
2022/03/12 02:45:01;;;;;;;21.83;9.07;;;;;;;0.01;78.54;101116.09;5094719;28;20023;-76
2022/03/12 02:47:30;;;;;;;21.17;8.80;;;;;;;0.24;77.01;101114.22;5093486;28;20039;-76
2022/03/12 02:49:58;;;;;;;25.23;9.57;;;;;;;0.20;76.12;101101.41;5094649;28;20279;-76
2022/03/12 02:52:30;;;;;;;22.67;10.27;;;;;;;0.27;76.31;101114.09;5094830;28;20206;-77
2022/03/12 02:54:58;;;;;;;24.07;10.17;;;;;;;0.21;76.14;101127.38;5093623;28;20020;-76
2022/03/12 02:57:26;;;;;;;26.27;11.27;;;;;;;0.19;76.10;101094.50;5095386;28;20035;-76
2022/03/12 02:59:58;;;;;;;26.23;13.20;;;;;;;0.28;75.21;101096.72;5094947;28;20048;-76
2022/03/12 03:02:31;;;;;;;25.83;12.10;;;;;;;0.46;74.45;101116.78;5092739;28;20059;-76
2022/03/12 03:04:57;;;;;;;20.58;8.70;;;;;;;0.48;74.40;101116.72;5092611;28;20024;-76
2022/03/12 03:07:23;;;;;;;23.90;11.50;;;;;;;0.40;74.44;101111.00;5093509;28;20046;-76
2022/03/12 03:09:49;;;;;;;26.23;10.33;;;;;;;0.44;73.79;101116.00;5093265;28;20028;-76
2022/03/12 03:12:15;;;;;;;22.90;10.80;;;;;;;0.44;73.29;101102.13;5094600;28;20039;-76
2022/03/12 03:14:42;;;;;;;22.03;10.03;;;;;;;0.54;73.13;101106.91;5093158;28;20027;-76
2022/03/12 03:17:12;;;;;;;22.37;10.07;;;;;;;0.55;72.34;101102.53;5094031;28;20051;-76
2022/03/12 03:19:38;;;;;;;27.53;10.37;;;;;;;0.83;71.30;101113.47;5091833;28;20055;-76
2022/03/12 03:22:05;;;;;;;23.90;11.27;;;;;;;0.78;71.12;101112.81;5094238;28;20036;-76
2022/03/12 03:24:31;;;;;;;26.20;10.10;;;;;;;0.68;71.31;101111.50;5092939;28;20569;-76
2022/03/12 03:26:58;;;;;;;31.77;11.97;;;;;;;0.73;70.60;101098.28;5094044;28;20149;-76
2022/03/12 03:29:33;;;;;;;25.00;9.87;;;;;;;0.69;71.03;101112.38;5092468;28;20033;-76
2022/03/12 03:32:02;;;;;;;27.33;10.10;;;;;;;0.78;70.72;101118.03;5093066;28;20043;-76
2022/03/12 03:34:30;;;;;;;22.33;10.87;;;;;;;0.62;70.06;101099.59;5092995;28;20032;-76
2022/03/12 03:36:56;;;;;;;22.67;9.40;;;;;;;0.84;69.67;101119.53;5094511;28;20103;-76
2022/03/12 03:39:22;;;;;;;24.93;9.67;;;;;;;0.81;68.94;101112.69;5094771;28;20036;-76
2022/03/12 03:41:47;;;;;;;22.00;9.13;;;;;;;0.87;68.52;101122.84;5098481;28;20056;-76
2022/03/12 03:44:13;;;;;;;20.27;9.47;;;;;;;0.90;68.59;101121.88;5097459;28;20055;-76
2022/03/12 03:46:39;;;;;;;20.47;8.77;;;;;;;1.02;67.40;101129.16;5098579;28;20044;-76
2022/03/12 03:49:05;;;;;;;18.13;7.80;;;;;;;0.78;68.00;101136.28;5097084;28;20047;-76
2022/03/12 03:51:40;;;;;;;16.40;7.43;;;;;;;0.41;67.84;101123.97;5098961;28;20036;-76
2022/03/12 03:54:08;;;;;;;17.63;8.23;;;;;;;0.39;68.39;101144.03;5098458;28;20217;-76
2022/03/12 03:56:34;;;;;;;19.27;7.47;;;;;;;0.34;69.45;101140.75;5096402;28;20040;-76
2022/03/12 03:59:00;;;;;;;18.80;7.63;;;;;;;0.23;69.40;101138.59;5097289;28;20036;-76
2022/03/12 04:01:26;;;;;;;19.47;7.90;;;;;;;0.35;69.39;101132.03;5095886;28;20375;-76
2022/03/12 04:03:51;;;;;;;15.57;7.37;;;;;;;0.43;69.47;101134.31;5098346;28;20392;-76
2022/03/12 04:06:19;;;;;;;18.53;7.10;;;;;;;0.59;68.53;101130.16;5096548;28;20062;-76
2022/03/12 04:08:44;;;;;;;20.80;7.60;;;;;;;0.64;67.82;101134.25;5096503;28;20027;-76
2022/03/12 04:11:18;;;;;;;17.60;7.37;;;;;;;0.62;67.91;101143.06;5097373;28;20029;-76
2022/03/12 04:13:46;;;;;;;14.40;7.10;;;;;;;0.59;68.14;101148.41;5096076;28;20028;-76
2022/03/12 04:16:13;;;;;;;18.40;8.10;;;;;;;0.44;67.48;101138.63;5097303;28;20282;-76
2022/03/12 04:18:38;;;;;;;21.80;8.27;;;;;;;0.30;68.02;101141.78;5095441;28;20260;-76
2022/03/12 04:21:06;;;;;;;20.67;7.73;;;;;;;0.32;69.81;101116.53;5098045;28;20136;-76
2022/03/12 04:23:32;;;;;;;23.97;11.00;;;;;;;0.28;70.81;101151.44;5096442;28;20027;-76
2022/03/12 04:25:58;;;;;;;25.60;10.30;;;;;;;0.25;69.72;101141.13;5097608;28;20020;-76
2022/03/12 04:28:28;;;;;;;28.07;11.37;;;;;;;0.38;70.07;101147.53;5098047;28;20029;-76
2022/03/12 04:30:54;;;;;;;28.50;11.43;;;;;;;0.32;69.62;101151.25;5096985;28;20024;-76
2022/03/12 04:33:19;;;;;;;35.03;12.87;;;;;;;0.50;69.44;101167.88;5097790;28;20140;-76
2022/03/12 04:35:47;;;;;;;55.33;16.80;;;;;;;0.51;69.05;101169.56;5096094;28;20079;-76
2022/03/12 04:38:13;;;;;;;30.10;12.37;;;;;;;0.69;67.98;101156.69;5097814;28;20032;-76
2022/03/12 04:40:41;;;;;;;59.90;16.10;;;;;;;0.72;68.61;101164.38;5095319;28;20050;-76
2022/03/12 04:43:07;;;;;;;46.83;16.83;;;;;;;0.72;69.00;101175.66;5095581;28;20261;-76
2022/03/12 04:45:34;;;;;;;56.13;18.93;;;;;;;0.77;69.20;101167.63;5096977;28;20028;-76
2022/03/12 04:47:59;;;;;;;47.80;16.63;;;;;;;0.91;67.83;101176.56;5095520;28;20032;-76
2022/03/12 04:50:25;;;;;;;39.40;15.37;;;;;;;0.96;68.36;101173.75;5096890;28;20027;-76
2022/03/12 04:52:53;;;;;;;34.13;13.17;;;;;;;0.91;67.47;101173.94;5095839;28;20329;-76
2022/03/12 04:55:21;;;;;;;36.00;14.40;;;;;;;0.94;67.62;101171.22;5098668;28;20032;-76
2022/03/12 04:57:47;;;;;;;34.07;13.43;;;;;;;1.03;66.72;101169.13;5095444;28;20563;-76
2022/03/12 05:00:23;;;;;;;39.80;13.57;;;;;;;1.13;66.86;101167.84;5094721;28;20032;-76
2022/03/12 05:02:52;;;;;;;34.20;12.87;;;;;;;1.14;66.74;101166.91;5097486;28;20054;-76
2022/03/12 05:05:18;;;;;;;56.00;17.00;;;;;;;1.16;65.77;101167.69;5095044;28;20032;-76
2022/03/12 05:07:45;;;;;;;68.87;22.40;;;;;;;0.95;66.32;101159.88;5096353;28;20043;-76
2022/03/12 05:10:17;;;;;;;54.77;23.80;;;;;;;0.40;68.86;101163.09;5096220;28;20029;-76
2022/03/12 05:12:43;;;;;;;49.13;20.00;;;;;;;0.49;69.84;101183.56;5094977;28;20333;-76
2022/03/12 05:15:14;;;;;;;51.53;17.70;;;;;;;0.16;71.31;101177.97;5097171;28;20555;-76
2022/03/12 05:17:47;;;;;;;44.30;15.80;;;;;;;0.12;71.55;101171.19;5095735;28;20029;-76
2022/03/12 05:20:21;;;;;;;72.93;18.50;;;;;;;0.19;71.85;101190.88;5094796;28;20032;-76
2022/03/12 05:22:47;;;;;;;48.37;18.60;;;;;;;0.05;72.35;101191.41;5096287;28;20062;-76
2022/03/12 05:25:13;;;;;;;55.47;17.67;;;;;;;-0.53;74.93;101174.53;5095212;28;20040;-76
2022/03/12 05:27:39;;;;;;;38.57;14.13;;;;;;;-0.39;75.58;101188.72;5096890;28;20020;-76
2022/03/12 05:30:05;;;;;;;38.03;15.40;;;;;;;-0.20;75.00;101183.69;5096019;28;20042;-76
2022/03/12 05:32:31;;;;;;;42.87;16.93;;;;;;;-0.33;74.39;101169.44;5094787;28;20016;-76
2022/03/12 05:34:56;;;;;;;64.60;20.83;;;;;;;-0.11;74.31;101185.06;5097193;28;20028;-76
2022/03/12 05:37:22;;;;;;;56.13;23.93;;;;;;;-0.33;74.96;101175.50;5094850;28;20038;-76
2022/03/12 05:39:54;;;;;;;58.73;22.20;;;;;;;-0.11;74.20;101167.69;5094628;28;20353;-76
2022/03/12 05:42:22;;;;;;;56.03;20.23;;;;;;;0.07;73.60;101189.59;5097799;28;20326;-76
2022/03/12 05:44:50;;;;;;;55.67;19.53;;;;;;;0.14;73.64;101187.59;5095267;28;20020;-76
2022/03/12 05:47:17;;;;;;;60.87;23.60;;;;;;;-0.03;74.00;101194.28;5096518;28;20095;-76
2022/03/12 05:49:42;;;;;;;72.93;31.33;;;;;;;-0.42;75.02;101181.03;5094771;28;20033;-76
2022/03/12 05:52:09;;;;;;;66.03;28.57;;;;;;;-0.23;75.15;101189.00;5094821;28;20050;-76
2022/03/12 05:54:36;;;;;;;39.10;18.17;;;;;;;0.16;74.17;101201.41;5095893;28;20036;-76
2022/03/12 05:57:02;;;;;;;42.70;15.97;;;;;;;0.26;73.94;101198.38;5094594;28;20036;-76
2022/03/12 05:59:28;;;;;;;52.63;19.47;;;;;;;0.24;74.20;101200.19;5096406;28;20036;-76
2022/03/12 06:01:54;;;;;;;46.23;18.17;;;;;;;0.35;73.29;101193.72;5094004;28;20047;-76
2022/03/12 06:04:25;;;;;;;52.13;19.87;;;;;;;0.49;73.16;101204.44;5096263;28;20300;-76
2022/03/12 06:06:52;;;;;;;42.60;17.23;;;;;;;0.11;74.31;101200.75;5093748;28;20056;-76
2022/03/12 06:09:18;;;;;;;43.27;15.87;;;;;;;0.31;74.00;101213.84;5093542;28;20028;-76
2022/03/12 06:11:44;;;;;;;57.83;19.60;;;;;;;0.47;73.52;101207.09;5094410;28;20037;-76
2022/03/12 06:14:14;;;;;;;46.80;17.73;;;;;;;0.65;72.97;101215.91;5093848;28;20032;-76
2022/03/12 06:16:39;;;;;;;52.30;16.53;;;;;;;0.69;73.05;101214.88;5097403;28;20020;-76
2022/03/12 06:19:04;;;;;;;58.53;18.40;;;;;;;1.25;70.72;101209.88;5094207;28;20117;-76
2022/03/12 06:21:30;;;;;;;80.77;22.87;;;;;;;1.78;68.96;101219.69;5096367;28;20225;-77
2022/03/12 06:23:56;;;;;;;31.50;12.60;;;;;;;2.39;66.10;101245.59;5094607;28;20032;-77
2022/03/12 06:26:25;;;;;;;23.70;11.47;;;;;;;2.31;65.44;101234.66;5094864;28;20176;-77
2022/03/12 06:28:50;;;;;;;40.60;15.63;;;;;;;2.60;64.62;101228.00;5095094;28;20475;-77
2022/03/12 06:31:16;;;;;;;32.97;14.23;;;;;;;3.07;63.81;101233.50;5093908;28;20055;-77
2022/03/12 06:33:42;;;;;;;29.27;12.00;;;;;;;3.61;60.94;101256.94;5095352;28;20363;-77
2022/03/12 06:36:09;;;;;;;23.93;10.80;;;;;;;3.71;58.96;101264.22;5093671;28;20252;-77
2022/03/12 06:38:37;;;;;;;38.80;13.50;;;;;;;3.85;58.42;101259.09;5094990;28;20044;-77
2022/03/12 06:41:02;;;;;;;16.77;8.30;;;;;;;4.10;55.25;101265.63;5093043;28;20028;-77
2022/03/12 06:43:28;;;;;;;18.80;9.47;;;;;;;4.60;53.89;101277.75;5095037;28;20039;-77
2022/03/12 06:45:59;;;;;;;18.57;8.23;;;;;;;4.56;54.38;101273.59;5092850;28;20246;-77
2022/03/12 06:48:25;;;;;;;20.30;9.67;;;;;;;5.17;52.83;101268.28;5092804;28;20036;-77
2022/03/12 06:50:52;;;;;;;17.98;10.25;;;;;;;5.06;52.26;101255.78;5094623;28;20334;-77
2022/03/12 06:53:18;;;;;;;15.57;8.52;;;;;;;5.20;51.29;101264.63;5092745;28;20036;-76
2022/03/12 06:55:44;;;;;;;17.10;8.50;;;;;;;5.54;50.28;101272.22;5095714;28;20024;-77
2022/03/12 06:58:11;;;;;;;21.73;9.53;;;;;;;5.60;48.89;101273.63;5092993;28;20329;-77
2022/03/12 07:00:36;;;;;;;23.90;10.02;;;;;;;5.65;49.53;101275.03;5094682;28;20118;-76
2022/03/12 07:03:02;;;;;;;20.17;10.52;;;;;;;5.82;48.59;101273.16;5094471;28;20082;-77
2022/03/12 07:05:28;;;;;;;25.25;10.70;;;;;;;6.21;46.87;101280.38;5094140;28;20027;-77
2022/03/12 07:07:55;;;;;;;33.72;14.65;;;;;;;6.54;46.04;101278.25;5094590;28;20070;-77
2022/03/12 07:10:20;;;;;;;20.33;9.93;;;;;;;6.80;43.69;101281.84;5093699;28;20027;-77
2022/03/12 07:12:47;;;;;;;26.45;11.00;;;;;;;6.71;42.77;101277.16;5094906;28;20046;-77
2022/03/12 07:15:13;;;;;;;19.48;9.50;;;;;;;6.30;44.04;101274.56;5093014;28;20252;-76
2022/03/12 07:17:41;;;;;;;17.35;9.63;;;;;;;6.50;43.41;101283.81;5094598;28;20051;-77
2022/03/12 07:20:07;;;;;;;18.63;9.73;;;;;;;6.48;43.36;101285.72;5093215;28;20032;-77
2022/03/12 07:22:33;;;;;;;25.80;9.70;;;;;;;6.55;42.57;101289.63;5094842;28;20024;-77
2022/03/12 07:24:58;;;;;;;26.40;11.90;;;;;;;6.47;42.63;101278.75;5092792;28;20099;-77
2022/03/12 07:27:26;;;;;;;17.95;9.25;;;;;;;6.20;42.47;101297.09;5093509;28;20036;-77
2022/03/12 07:29:53;;;;;;;19.25;9.23;;;;;;;6.33;41.59;101291.00;5094756;28;20032;-76
2022/03/12 07:32:19;;;;;;;25.88;10.27;;;;;;;6.09;41.43;101282.84;5093403;28;20062;-76
2022/03/12 07:34:45;;;;;;;24.73;10.32;;;;;;;6.35;41.34;101296.16;5094036;28;20219;-77
2022/03/12 07:37:11;;;;;;;23.00;10.48;;;;;;;6.35;39.54;101297.00;5093513;28;20026;-77
2022/03/12 07:39:38;;;;;;;22.23;9.88;;;;;;;6.58;38.59;101300.81;5094265;28;20081;-77
2022/03/12 07:42:04;;;;;;;23.73;11.32;;;;;;;6.12;40.72;101279.19;5093146;28;20059;-77
2022/03/12 07:44:30;;;;;;;21.33;11.25;;;;;;;5.53;41.72;101272.31;5094653;28;20107;-77
2022/03/12 07:46:56;;;;;;;26.95;12.45;;;;;;;5.37;43.96;101278.47;5092558;28;20271;-77
2022/03/12 07:49:23;;;;;;;24.08;11.70;;;;;;;5.25;44.52;101275.75;5095261;28;20189;-77
2022/03/12 07:51:50;;;;;;;28.67;12.85;;;;;;;5.17;44.91;101260.41;5093742;28;20338;-77
2022/03/12 07:54:16;;;;;;;25.87;12.50;;;;;;;4.88;45.70;101277.84;5092330;28;20028;-77
2022/03/12 07:56:43;;;;;;;24.97;11.97;;;;;;;4.63;45.75;101265.28;5094440;28;20088;-77
2022/03/12 07:59:09;;;;;;;29.10;13.67;;;;;;;4.57;46.96;101272.66;5092429;28;20044;-77
2022/03/12 08:01:34;;;;;;;28.90;14.17;;;;;;;4.72;47.69;101272.63;5094578;28;20029;-77
2022/03/12 08:04:01;;;;;;;33.93;13.53;;;;;;;4.06;51.27;101280.66;5092504;28;20321;-76
2022/03/12 08:06:28;;;;;;;26.07;13.80;;;;;;;3.89;52.06;101265.00;5094077;28;20480;-76
2022/03/12 08:08:54;;;;;;;24.47;12.43;;;;;;;3.81;52.00;101275.91;5092351;28;20028;-76
2022/03/12 08:11:25;;;;;;;30.20;16.17;;;;;;;3.49;52.01;101285.44;5094395;28;20044;-77
2022/03/12 08:14:03;;;;;;;25.53;12.03;;;;;;;3.78;52.00;101286.53;5093154;28;20232;-77
2022/03/12 08:16:31;;;;;;;30.07;13.33;;;;;;;3.63;52.81;101287.34;5094540;28;20028;-76
2022/03/12 08:18:56;;;;;;;24.73;11.70;;;;;;;4.00;51.90;101288.88;5099982;28;20032;-76
2022/03/12 08:21:22;;;;;;;20.37;11.13;;;;;;;3.73;51.36;101269.38;5098707;28;20416;-77
2022/03/12 08:23:49;;;;;;;27.37;13.23;;;;;;;4.28;50.80;101290.03;5097121;28;20039;-77
2022/03/12 08:26:15;;;;;;;24.50;11.80;;;;;;;4.12;50.60;101297.84;5100112;28;20024;-76
2022/03/12 08:28:41;;;;;;;19.30;10.33;;;;;;;4.25;50.77;101298.06;5103080;28;20059;-76
2022/03/12 08:31:07;;;;;;;23.40;12.50;;;;;;;4.20;50.40;101306.16;5102869;28;20065;-76
2022/03/12 08:33:36;;;;;;;27.47;13.10;;;;;;;3.94;47.79;101302.31;5101662;28;20044;-76
2022/03/12 08:36:04;;;;;;;31.05;10.73;;;;;;;4.23;45.53;101294.66;5103557;28;20040;-77
2022/03/12 08:38:30;;;;;;;27.87;10.50;;;;;;;4.25;44.02;101317.25;5102204;28;20044;-77
2022/03/12 08:40:56;;;;;;;16.30;9.50;;;;;;;4.44;43.96;101317.09;5102011;28;20039;-76
2022/03/12 08:43:21;;;;;;;15.23;9.00;;;;;;;4.82;42.66;101317.56;5103514;28;20063;-76
2022/03/12 08:45:48;;;;;;;24.20;10.57;;;;;;;4.42;46.25;101321.56;5101982;28;20046;-77
2022/03/12 08:48:15;;;;;;;84.50;21.37;;;;;;;4.62;45.39;101300.31;5101160;28;20059;-77
2022/03/12 08:50:41;;;;;;;19.23;10.07;;;;;;;4.87;45.73;101323.41;5098528;28;20320;-77
2022/03/12 08:53:07;;;;;;;18.93;10.57;;;;;;;4.60;47.01;101322.34;5100699;28;20054;-77
2022/03/12 08:55:32;;;;;;;21.23;10.70;;;;;;;4.90;45.60;101325.00;5102571;28;20345;-77
2022/03/12 08:57:58;;;;;;;22.97;9.97;;;;;;;4.56;46.22;101312.94;5101863;28;20078;-77
2022/03/12 09:00:23;;;;;;;15.80;8.83;;;;;;;4.81;46.40;101329.84;5101760;28;20032;-77
2022/03/12 09:02:50;;;;;;;21.23;10.47;;;;;;;4.57;47.47;101322.50;5100056;28;20028;-77
2022/03/12 09:05:15;;;;;;;16.93;8.73;;;;;;;3.99;48.38;101326.50;5103013;28;20031;-77
2022/03/12 09:07:42;;;;;;;18.70;9.27;;;;;;;3.70;50.19;101316.69;5100649;28;20039;-76
2022/03/12 09:10:11;;;;;;;19.73;9.87;;;;;;;3.70;49.12;101319.31;5102929;28;20424;-76
2022/03/12 09:12:38;;;;;;;18.37;8.80;;;;;;;3.73;48.11;101317.38;5101591;28;20320;-77
2022/03/12 09:15:05;;;;;;;17.13;8.90;;;;;;;3.85;47.37;101316.75;5101449;28;20036;-77
2022/03/12 09:17:31;;;;;;;20.77;10.33;;;;;;;3.77;46.42;101321.53;5101915;28;20024;-77
2022/03/12 09:19:56;;;;;;;17.57;9.17;;;;;;;3.60;45.12;101318.94;5100546;28;20030;-77
2022/03/12 09:22:23;;;;;;;21.77;10.50;;;;;;;3.37;44.58;101327.97;5101975;28;20091;-75
2022/03/12 09:24:49;;;;;;;25.40;13.33;;;;;;;3.77;43.49;101318.06;5101274;28;20024;-76
2022/03/12 09:27:14;;;;;;;27.50;9.10;;;;;;;3.55;41.75;101299.16;5094287;28;20039;-77
2022/03/12 09:29:41;;;;;;;20.70;12.13;;;;;;;4.01;41.78;101326.41;5092418;28;20032;-77
2022/03/12 09:32:08;;;;;;;20.97;7.47;;;;;;;4.40;41.12;101318.19;5094935;28;20283;-75
2022/03/12 09:34:34;;;;;;;15.13;7.90;;;;;;;4.81;39.36;101324.59;5088990;28;20246;-75
2022/03/12 09:37:01;;;;;;;13.00;7.10;;;;;;;5.21;38.31;101319.72;5089369;28;20048;-77
2022/03/12 09:39:26;;;;;;;19.40;9.30;;;;;;;5.33;38.03;101312.91;5090547;28;20056;-77
2022/03/12 09:41:52;;;;;;;11.73;6.60;;;;;;;5.44;35.99;101303.44;5092678;28;20020;-75
2022/03/12 09:44:18;;;;;;;18.55;8.15;;;;;;;5.07;37.42;101296.00;5088687;28;20032;-76
2022/03/12 09:46:43;;;;;;;15.98;7.25;;;;;;;5.12;37.32;101286.09;5094189;28;20032;-77
2022/03/12 09:49:11;;;;;;;11.50;6.53;;;;;;;5.05;37.49;101301.34;5091896;28;20070;-76
2022/03/12 09:51:40;;;;;;;23.17;9.33;;;;;;;4.84;39.30;101292.09;5099642;28;20036;-77
2022/03/12 09:54:06;;;;;;;12.87;7.10;;;;;;;5.10;37.60;101299.31;5087240;28;20330;-77
2022/03/12 09:56:31;;;;;;;14.68;7.53;;;;;;;5.39;37.69;101300.25;5089281;28;20095;-77
2022/03/12 09:58:57;;;;;;;13.98;6.53;;;;;;;5.20;35.13;101298.75;5091175;28;20036;-77
2022/03/12 10:01:22;;;;;;;7.85;4.60;;;;;;;4.92;33.62;101295.13;5090961;28;20102;-77
2022/03/12 10:03:48;;;;;;;9.80;4.70;;;;;;;5.31;33.21;101294.59;5089209;28;20048;-75
2022/03/12 10:06:16;;;;;;;10.93;5.38;;;;;;;5.38;33.99;101274.06;5089485;28;20036;-77
2022/03/12 10:08:43;;;;;;;7.47;4.40;;;;;;;5.53;33.34;101283.66;5098093;28;20247;-77
2022/03/12 10:11:09;;;;;;;8.05;4.95;;;;;;;5.43;31.56;101259.72;5099759;28;20036;-77
2022/03/12 10:13:35;;;;;;;10.75;5.55;;;;;;;5.57;30.48;101282.53;5101361;28;20226;-76
2022/03/12 10:16:02;;;;;;;14.85;10.13;;;;;;;5.20;32.82;101251.50;5100576;28;20048;-77
2022/03/12 10:18:27;;;;;;;8.17;4.40;;;;;;;5.26;31.96;101283.53;5100860;28;20254;-77
2022/03/12 10:20:53;;;;;;;9.98;4.35;;;;;;;4.96;31.13;101283.50;5101170;28;20229;-77
2022/03/12 10:23:19;;;;;;;10.07;5.60;;;;;;;4.80;32.92;101272.19;5099840;28;20043;-77
2022/03/12 10:25:45;;;;;;;11.77;4.50;;;;;;;5.00;32.81;101282.41;5100642;28;20067;-77
2022/03/12 10:28:12;;;;;;;12.70;5.27;;;;;;;5.00;32.98;101278.94;5098292;28;20032;-76
2022/03/12 10:30:38;;;;;;;9.18;5.25;;;;;;;4.89;33.92;101263.78;5099872;28;20040;-77
2022/03/12 10:33:05;;;;;;;15.40;6.90;;;;;;;4.73;34.29;101273.47;5099729;28;20044;-77
2022/03/12 10:35:38;;;;;;;16.90;6.38;;;;;;;4.75;33.05;101261.13;5099271;28;20071;-77
2022/03/12 10:38:12;;;;;;;12.27;7.10;;;;;;;4.70;33.98;101229.06;5100812;28;20085;-77
2022/03/12 10:40:38;;;;;;;7.18;4.50;;;;;;;5.26;31.81;101246.75;5098700;28;20163;-77
2022/03/12 10:43:12;;;;;;;7.75;4.95;;;;;;;5.69;31.31;101257.31;5098968;28;20027;-77
2022/03/12 10:45:48;;;;;;;;;;;;;;;5.32;31.05;101256.91;5101200;28;20034;-76
2022/03/12 10:48:19;;;;;;;13.32;6.25;;;;;;;5.61;32.99;101252.50;5099416;28;20105;-77
2022/03/12 10:50:47;;;;;;;12.32;6.05;;;;;;;5.52;35.18;101239.09;5100959;28;20227;-77
2022/03/12 10:53:15;;;;;;;19.43;7.83;;;;;;;5.31;34.12;101249.13;5099990;28;20042;-77
2022/03/12 10:55:44;;;;;;;14.63;6.50;;;;;;;5.60;32.57;101248.19;5100382;28;20026;-77
2022/03/12 10:58:20;;;;;;;22.33;6.35;;;;;;;5.68;31.76;101240.69;5101501;28;20073;-77
2022/03/12 11:00:47;;;;;;;24.15;14.63;;;;;;;5.95;32.66;101224.16;5097784;28;20040;-77
2022/03/12 11:03:20;;;;;;;15.82;7.15;;;;;;;6.26;33.85;101239.72;5098234;28;20091;-77
2022/03/12 11:05:47;;;;;;;16.10;8.05;;;;;;;5.89;33.78;101240.28;5099516;28;20157;-77
2022/03/12 11:08:18;;;;;;;9.07;5.97;;;;;;;5.90;33.55;101236.75;5099881;28;20038;-77
2022/03/12 11:10:50;;;;;;;12.68;6.28;;;;;;;6.43;33.97;101233.38;5098201;28;20081;-76
2022/03/12 11:13:44;;;;;;;14.45;6.00;;;;;;;6.30;32.53;101235.13;5098061;28;20256;-77
2022/03/12 11:16:24;;;;;;;12.95;6.22;;;;;;;5.52;33.21;101221.53;5097526;28;20028;-77
2022/03/12 11:18:52;;;;;;;42.20;12.10;;;;;;;5.65;32.86;101222.47;5098148;28;20210;-77